sensor_id;sensor_type;location;lat;lon;timestamp;pressure;altitude;pressure_sealevel;temperature;humidity
69153;BME280;56261;51.580;4.578;2023-07-28T00:01:56;100622.25;;;17.50;100.00
69153;BME280;56261;51.580;4.578;2023-07-28T00:04:22;100620.81;;;17.48;100.00
69153;BME280;56261;51.580;4.578;2023-07-28T00:06:48;100625.63;;;17.46;100.00
69153;BME280;56261;51.580;4.578;2023-07-28T00:09:13;100624.59;;;17.47;100.00
69153;BME280;56261;51.580;4.578;2023-07-28T00:11:38;100626.00;;;17.49;100.00
69153;BME280;56261;51.580;4.578;2023-07-28T00:14:04;100618.75;;;17.50;100.00
69153;BME280;56261;51.580;4.578;2023-07-28T00:16:29;100619.75;;;17.55;100.00
69153;BME280;56261;51.580;4.578;2023-07-28T00:18:54;100620.16;;;17.52;100.00
69153;BME280;56261;51.580;4.578;2023-07-28T00:21:20;100616.28;;;17.48;100.00
69153;BME280;56261;51.580;4.578;2023-07-28T00:23:45;100614.34;;;17.55;100.00
69153;BME280;56261;51.580;4.578;2023-07-28T00:26:11;100600.91;;;17.49;100.00
69153;BME280;56261;51.580;4.578;2023-07-28T00:28:36;100610.84;;;17.55;100.00
69153;BME280;56261;51.580;4.578;2023-07-28T00:31:01;100609.38;;;17.52;100.00
69153;BME280;56261;51.580;4.578;2023-07-28T00:33:27;100612.53;;;17.49;100.00
69153;BME280;56261;51.580;4.578;2023-07-28T00:35:52;100599.44;;;17.53;100.00
69153;BME280;56261;51.580;4.578;2023-07-28T00:38:17;100601.75;;;17.49;100.00
69153;BME280;56261;51.580;4.578;2023-07-28T00:40:43;100606.63;;;17.59;100.00
69153;BME280;56261;51.580;4.578;2023-07-28T00:43:08;100605.25;;;17.50;100.00
69153;BME280;56261;51.580;4.578;2023-07-28T00:45:34;100604.22;;;17.51;100.00
69153;BME280;56261;51.580;4.578;2023-07-28T00:48:00;100606.25;;;17.55;100.00
69153;BME280;56261;51.580;4.578;2023-07-28T00:50:26;100600.41;;;17.58;100.00
69153;BME280;56261;51.580;4.578;2023-07-28T00:52:52;100607.06;;;17.56;100.00
69153;BME280;56261;51.580;4.578;2023-07-28T00:55:18;100615.22;;;17.49;100.00
69153;BME280;56261;51.580;4.578;2023-07-28T00:57:43;100609.84;;;17.49;100.00
69153;BME280;56261;51.580;4.578;2023-07-28T01:00:10;100609.97;;;17.54;100.00
69153;BME280;56261;51.580;4.578;2023-07-28T01:02:36;100612.63;;;17.61;100.00
69153;BME280;56261;51.580;4.578;2023-07-28T01:05:02;100607.69;;;17.58;100.00
69153;BME280;56261;51.580;4.578;2023-07-28T01:07:47;100608.41;;;17.47;100.00
69153;BME280;56261;51.580;4.578;2023-07-28T01:10:18;100609.78;;;17.56;100.00
69153;BME280;56261;51.580;4.578;2023-07-28T01:12:47;100609.38;;;17.52;100.00
69153;BME280;56261;51.580;4.578;2023-07-28T01:15:12;100612.31;;;17.51;100.00
69153;BME280;56261;51.580;4.578;2023-07-28T01:17:41;100611.09;;;17.47;100.00
69153;BME280;56261;51.580;4.578;2023-07-28T01:20:06;100602.56;;;17.50;100.00
69153;BME280;56261;51.580;4.578;2023-07-28T01:25:53;100615.22;;;17.49;100.00
69153;BME280;56261;51.580;4.578;2023-07-28T01:28:21;100614.78;;;17.52;100.00
69153;BME280;56261;51.580;4.578;2023-07-28T01:30:47;100631.19;;;17.51;100.00
69153;BME280;56261;51.580;4.578;2023-07-28T01:33:13;100619.94;;;17.54;100.00
69153;BME280;56261;51.580;4.578;2023-07-28T01:35:38;100623.31;;;17.49;100.00
69153;BME280;56261;51.580;4.578;2023-07-28T01:38:04;100619.34;;;17.52;100.00
69153;BME280;56261;51.580;4.578;2023-07-28T01:40:30;100628.66;;;17.56;100.00
69153;BME280;56261;51.580;4.578;2023-07-28T01:42:56;100625.81;;;17.51;100.00
69153;BME280;56261;51.580;4.578;2023-07-28T01:45:21;100631.94;;;17.58;100.00
69153;BME280;56261;51.580;4.578;2023-07-28T01:47:47;100617.25;;;17.54;100.00
69153;BME280;56261;51.580;4.578;2023-07-28T01:50:12;100622.84;;;17.52;100.00
69153;BME280;56261;51.580;4.578;2023-07-28T01:52:37;100619.28;;;17.58;100.00
69153;BME280;56261;51.580;4.578;2023-07-28T01:55:03;100615.81;;;17.51;100.00
69153;BME280;56261;51.580;4.578;2023-07-28T01:57:32;100619.94;;;17.54;100.00
69153;BME280;56261;51.580;4.578;2023-07-28T01:59:58;100620.72;;;17.61;100.00
69153;BME280;56261;51.580;4.578;2023-07-28T02:02:23;100631.91;;;17.64;100.00
69153;BME280;56261;51.580;4.578;2023-07-28T02:04:49;100621.38;;;17.56;100.00
69153;BME280;56261;51.580;4.578;2023-07-28T02:07:14;100624.69;;;17.58;100.00
69153;BME280;56261;51.580;4.578;2023-07-28T02:09:39;100616.38;;;17.60;100.00
69153;BME280;56261;51.580;4.578;2023-07-28T02:12:05;100617.03;;;17.55;100.00
69153;BME280;56261;51.580;4.578;2023-07-28T02:14:30;100623.47;;;17.54;100.00
69153;BME280;56261;51.580;4.578;2023-07-28T02:16:56;100613.94;;;17.52;100.00
69153;BME280;56261;51.580;4.578;2023-07-28T02:19:21;100613.75;;;17.53;100.00
69153;BME280;56261;51.580;4.578;2023-07-28T02:21:47;100614.16;;;17.50;100.00
69153;BME280;56261;51.580;4.578;2023-07-28T02:24:12;100618.25;;;17.59;100.00
69153;BME280;56261;51.580;4.578;2023-07-28T02:26:37;100612.47;;;17.56;100.00
69153;BME280;56261;51.580;4.578;2023-07-28T02:29:03;100618.31;;;17.53;100.00
69153;BME280;56261;51.580;4.578;2023-07-28T02:31:28;100610.03;;;17.48;100.00
69153;BME280;56261;51.580;4.578;2023-07-28T02:33:55;100611.19;;;17.58;100.00
69153;BME280;56261;51.580;4.578;2023-07-28T02:36:20;100608.94;;;17.55;100.00
69153;BME280;56261;51.580;4.578;2023-07-28T02:38:46;100604.31;;;17.62;100.00
69153;BME280;56261;51.580;4.578;2023-07-28T02:41:11;100603.97;;;17.52;100.00
69153;BME280;56261;51.580;4.578;2023-07-28T02:43:37;100606.69;;;17.52;100.00
69153;BME280;56261;51.580;4.578;2023-07-28T02:46:03;100613.34;;;17.50;100.00
69153;BME280;56261;51.580;4.578;2023-07-28T02:48:28;100603.78;;;17.54;100.00
69153;BME280;56261;51.580;4.578;2023-07-28T02:50:53;100609.78;;;17.56;100.00
69153;BME280;56261;51.580;4.578;2023-07-28T02:53:19;100615.44;;;17.48;100.00
69153;BME280;56261;51.580;4.578;2023-07-28T02:55:46;100615.78;;;17.58;100.00
69153;BME280;56261;51.580;4.578;2023-07-28T02:58:12;100618.13;;;17.48;100.00
69153;BME280;56261;51.580;4.578;2023-07-28T03:00:41;100623.47;;;17.54;100.00
69153;BME280;56261;51.580;4.578;2023-07-28T03:03:08;100623.91;;;17.51;100.00
69153;BME280;56261;51.580;4.578;2023-07-28T03:05:37;100625.81;;;17.51;100.00
69153;BME280;56261;51.580;4.578;2023-07-28T03:08:03;100633.84;;;17.57;100.00
69153;BME280;56261;51.580;4.578;2023-07-28T03:10:29;100617.75;;;17.44;100.00
69153;BME280;56261;51.580;4.578;2023-07-28T03:12:55;100633.03;;;17.50;100.00
69153;BME280;56261;51.580;4.578;2023-07-28T03:15:21;100629.31;;;17.51;100.00
69153;BME280;56261;51.580;4.578;2023-07-28T03:17:50;100634.25;;;17.54;100.00
69153;BME280;56261;51.580;4.578;2023-07-28T03:20:16;100631.63;;;17.48;100.00
69153;BME280;56261;51.580;4.578;2023-07-28T03:22:41;100636.19;;;17.47;100.00
69153;BME280;56261;51.580;4.578;2023-07-28T03:25:07;100627.06;;;17.48;100.00
69153;BME280;56261;51.580;4.578;2023-07-28T03:27:33;100621.44;;;17.50;100.00
69153;BME280;56261;51.580;4.578;2023-07-28T03:29:59;100626.00;;;17.49;100.00
69153;BME280;56261;51.580;4.578;2023-07-28T03:32:24;100630.19;;;17.45;100.00
69153;BME280;56261;51.580;4.578;2023-07-28T03:34:50;100634.09;;;17.49;100.00
69153;BME280;56261;51.580;4.578;2023-07-28T03:37:15;100621.44;;;17.50;100.00
69153;BME280;56261;51.580;4.578;2023-07-28T03:39:40;100638.44;;;17.50;100.00
69153;BME280;56261;51.580;4.578;2023-07-28T03:42:06;100638.38;;;17.57;100.00
69153;BME280;56261;51.580;4.578;2023-07-28T03:44:32;100643.78;;;17.57;100.00
69153;BME280;56261;51.580;4.578;2023-07-28T03:46:57;100648.34;;;17.56;100.00
69153;BME280;56261;51.580;4.578;2023-07-28T03:49:23;100643.66;;;17.70;100.00
69153;BME280;56261;51.580;4.578;2023-07-28T03:51:48;100644.56;;;17.64;100.00
69153;BME280;56261;51.580;4.578;2023-07-28T03:54:14;100640.88;;;17.58;100.00
69153;BME280;56261;51.580;4.578;2023-07-28T03:56:39;100648.59;;;17.55;100.00
69153;BME280;56261;51.580;4.578;2023-07-28T03:59:04;100650.22;;;17.56;100.00
69153;BME280;56261;51.580;4.578;2023-07-28T04:01:30;100643.09;;;17.61;100.00
69153;BME280;56261;51.580;4.578;2023-07-28T04:03:56;100643.03;;;17.68;100.00
69153;BME280;56261;51.580;4.578;2023-07-28T04:06:48;100649.34;;;17.62;100.00
69153;BME280;56261;51.580;4.578;2023-07-28T04:09:17;100648.81;;;17.53;100.00
69153;BME280;56261;51.580;4.578;2023-07-28T04:11:43;100646.25;;;17.58;100.00
69153;BME280;56261;51.580;4.578;2023-07-28T04:14:09;100650.88;;;17.51;100.00
69153;BME280;56261;51.580;4.578;2023-07-28T04:16:34;100646.91;;;17.54;100.00
69153;BME280;56261;51.580;4.578;2023-07-28T04:19:00;100649.41;;;17.55;100.00
69153;BME280;56261;51.580;4.578;2023-07-28T04:21:26;100640.72;;;17.53;100.00
69153;BME280;56261;51.580;4.578;2023-07-28T04:23:51;100642.41;;;17.48;100.00
69153;BME280;56261;51.580;4.578;2023-07-28T04:26:17;100656.72;;;17.48;100.00
69153;BME280;56261;51.580;4.578;2023-07-28T04:28:43;100656.22;;;17.58;100.00
69153;BME280;56261;51.580;4.578;2023-07-28T04:31:08;100650.69;;;17.53;100.00
69153;BME280;56261;51.580;4.578;2023-07-28T04:33:33;100654.34;;;17.58;100.00
69153;BME280;56261;51.580;4.578;2023-07-28T04:35:59;100656.44;;;17.56;100.00
69153;BME280;56261;51.580;4.578;2023-07-28T04:38:25;100656.88;;;17.53;100.00
69153;BME280;56261;51.580;4.578;2023-07-28T04:40:50;100658.72;;;17.59;100.00
69153;BME280;56261;51.580;4.578;2023-07-28T04:43:15;100653.13;;;17.54;100.00
69153;BME280;56261;51.580;4.578;2023-07-28T04:45:41;100659.75;;;17.58;100.00
69153;BME280;56261;51.580;4.578;2023-07-28T04:48:06;100659.53;;;17.60;100.00
69153;BME280;56261;51.580;4.578;2023-07-28T04:50:31;100648.28;;;17.63;100.00
69153;BME280;56261;51.580;4.578;2023-07-28T04:53:00;100658.75;;;17.78;100.00
69153;BME280;56261;51.580;4.578;2023-07-28T04:55:25;100652.41;;;17.66;100.00
69153;BME280;56261;51.580;4.578;2023-07-28T04:57:52;100659.69;;;17.65;100.00
69153;BME280;56261;51.580;4.578;2023-07-28T05:00:17;100668.78;;;17.71;100.00
69153;BME280;56261;51.580;4.578;2023-07-28T05:02:43;100657.19;;;17.63;100.00
69153;BME280;56261;51.580;4.578;2023-07-28T05:05:08;100670.81;;;17.75;100.00
69153;BME280;56261;51.580;4.578;2023-07-28T05:07:33;100662.47;;;17.77;100.00
69153;BME280;56261;51.580;4.578;2023-07-28T05:09:59;100665.78;;;17.79;100.00
69153;BME280;56261;51.580;4.578;2023-07-28T05:12:24;100660.84;;;17.76;100.00
69153;BME280;56261;51.580;4.578;2023-07-28T05:14:51;100674.47;;;17.81;100.00
69153;BME280;56261;51.580;4.578;2023-07-28T05:17:16;100673.88;;;17.79;100.00
69153;BME280;56261;51.580;4.578;2023-07-28T05:19:42;100663.69;;;17.81;100.00
69153;BME280;56261;51.580;4.578;2023-07-28T05:22:07;100668.69;;;17.84;100.00
69153;BME280;56261;51.580;4.578;2023-07-28T05:24:33;100667.50;;;17.98;100.00
69153;BME280;56261;51.580;4.578;2023-07-28T05:26:58;100667.28;;;18.00;100.00
69153;BME280;56261;51.580;4.578;2023-07-28T05:29:24;100669.31;;;18.04;100.00
69153;BME280;56261;51.580;4.578;2023-07-28T05:31:49;100659.41;;;17.98;100.00
69153;BME280;56261;51.580;4.578;2023-07-28T05:34:15;100663.22;;;17.91;100.00
69153;BME280;56261;51.580;4.578;2023-07-28T05:36:40;100673.34;;;17.95;100.00
69153;BME280;56261;51.580;4.578;2023-07-28T05:39:06;100668.72;;;18.02;100.00
69153;BME280;56261;51.580;4.578;2023-07-28T05:41:31;100674.25;;;17.89;100.00
69153;BME280;56261;51.580;4.578;2023-07-28T05:43:57;100671.53;;;17.89;100.00
69153;BME280;56261;51.580;4.578;2023-07-28T05:46:22;100681.59;;;18.00;100.00
69153;BME280;56261;51.580;4.578;2023-07-28T05:48:48;100681.06;;;18.10;100.00
69153;BME280;56261;51.580;4.578;2023-07-28T05:51:13;100684.69;;;18.04;100.00
69153;BME280;56261;51.580;4.578;2023-07-28T05:53:38;100690.25;;;18.09;100.00
69153;BME280;56261;51.580;4.578;2023-07-28T05:56:04;100687.91;;;18.13;100.00
69153;BME280;56261;51.580;4.578;2023-07-28T05:58:29;100687.97;;;18.06;100.00
69153;BME280;56261;51.580;4.578;2023-07-28T06:00:55;100698.13;;;18.11;100.00
69153;BME280;56261;51.580;4.578;2023-07-28T06:03:20;100693.91;;;18.15;100.00
69153;BME280;56261;51.580;4.578;2023-07-28T06:05:45;100693.97;;;18.08;100.00
69153;BME280;56261;51.580;4.578;2023-07-28T06:08:11;100699.06;;;17.98;100.00
69153;BME280;56261;51.580;4.578;2023-07-28T06:10:37;100701.91;;;18.03;100.00
69153;BME280;56261;51.580;4.578;2023-07-28T06:13:02;100702.53;;;18.05;100.00
69153;BME280;56261;51.580;4.578;2023-07-28T06:15:28;100709.94;;;18.10;100.00
69153;BME280;56261;51.580;4.578;2023-07-28T06:17:53;100710.41;;;18.07;100.00
69153;BME280;56261;51.580;4.578;2023-07-28T06:20:18;100705.44;;;18.03;100.00
69153;BME280;56261;51.580;4.578;2023-07-28T06:22:44;100712.25;;;18.06;100.00
69153;BME280;56261;51.580;4.578;2023-07-28T06:25:09;100708.59;;;18.00;100.00
69153;BME280;56261;51.580;4.578;2023-07-28T06:27:35;100717.09;;;18.04;100.00
69153;BME280;56261;51.580;4.578;2023-07-28T06:30:01;100716.00;;;18.05;100.00
69153;BME280;56261;51.580;4.578;2023-07-28T06:32:27;100722.91;;;18.01;100.00
69153;BME280;56261;51.580;4.578;2023-07-28T06:34:53;100721.56;;;18.10;100.00
69153;BME280;56261;51.580;4.578;2023-07-28T06:37:19;100730.72;;;18.09;100.00
69153;BME280;56261;51.580;4.578;2023-07-28T06:39:44;100723.72;;;18.01;100.00
69153;BME280;56261;51.580;4.578;2023-07-28T06:42:10;100729.84;;;18.15;100.00
69153;BME280;56261;51.580;4.578;2023-07-28T06:44:37;100733.84;;;18.06;100.00
69153;BME280;56261;51.580;4.578;2023-07-28T06:47:02;100732.22;;;18.05;100.00
69153;BME280;56261;51.580;4.578;2023-07-28T06:49:28;100738.94;;;17.96;100.00
69153;BME280;56261;51.580;4.578;2023-07-28T06:51:53;100738.44;;;18.05;100.00
69153;BME280;56261;51.580;4.578;2023-07-28T06:54:19;100744.13;;;17.97;100.00
69153;BME280;56261;51.580;4.578;2023-07-28T06:56:45;100753.53;;;18.13;100.00
69153;BME280;56261;51.580;4.578;2023-07-28T06:59:10;100744.06;;;18.04;100.00
69153;BME280;56261;51.580;4.578;2023-07-28T07:01:37;100749.41;;;18.11;100.00
69153;BME280;56261;51.580;4.578;2023-07-28T07:04:02;100749.56;;;18.16;100.00
69153;BME280;56261;51.580;4.578;2023-07-28T07:06:27;100752.47;;;18.14;100.00
69153;BME280;56261;51.580;4.578;2023-07-28T07:08:53;100757.72;;;18.09;100.00
69153;BME280;56261;51.580;4.578;2023-07-28T07:11:18;100757.31;;;18.05;100.00
69153;BME280;56261;51.580;4.578;2023-07-28T07:13:44;100750.84;;;18.13;100.00
69153;BME280;56261;51.580;4.578;2023-07-28T07:16:18;100756.00;;;18.15;100.00
69153;BME280;56261;51.580;4.578;2023-07-28T07:18:43;100758.63;;;18.21;100.00
69153;BME280;56261;51.580;4.578;2023-07-28T07:21:09;100759.09;;;18.37;100.00
69153;BME280;56261;51.580;4.578;2023-07-28T07:23:35;100753.03;;;18.41;100.00
69153;BME280;56261;51.580;4.578;2023-07-28T07:26:01;100760.72;;;18.44;100.00
69153;BME280;56261;51.580;4.578;2023-07-28T07:28:26;100753.56;;;18.50;100.00
69153;BME280;56261;51.580;4.578;2023-07-28T07:30:54;100761.16;;;18.60;100.00
69153;BME280;56261;51.580;4.578;2023-07-28T07:33:19;100758.16;;;18.50;100.00
69153;BME280;56261;51.580;4.578;2023-07-28T07:35:44;100761.44;;;18.52;100.00
69153;BME280;56261;51.580;4.578;2023-07-28T07:38:10;100763.56;;;18.50;100.00
69153;BME280;56261;51.580;4.578;2023-07-28T07:40:35;100761.75;;;18.62;100.00
69153;BME280;56261;51.580;4.578;2023-07-28T07:43:01;100764.97;;;18.52;100.00
69153;BME280;56261;51.580;4.578;2023-07-28T07:45:29;100777.88;;;18.68;100.00
69153;BME280;56261;51.580;4.578;2023-07-28T07:47:54;100775.16;;;18.50;100.00
69153;BME280;56261;51.580;4.578;2023-07-28T07:50:20;100776.06;;;18.44;100.00
69153;BME280;56261;51.580;4.578;2023-07-28T07:52:47;100778.13;;;18.49;100.00
69153;BME280;56261;51.580;4.578;2023-07-28T07:55:13;100776.59;;;18.78;100.00
69153;BME280;56261;51.580;4.578;2023-07-28T07:57:39;100779.69;;;18.93;100.00
69153;BME280;56261;51.580;4.578;2023-07-28T08:00:05;100773.47;;;18.74;100.00
69153;BME280;56261;51.580;4.578;2023-07-28T08:02:31;100777.84;;;18.94;100.00
69153;BME280;56261;51.580;4.578;2023-07-28T08:04:56;100780.81;;;19.22;100.00
69153;BME280;56261;51.580;4.578;2023-07-28T08:07:22;100784.81;;;19.01;100.00
69153;BME280;56261;51.580;4.578;2023-07-28T08:09:49;100785.28;;;18.98;100.00
69153;BME280;56261;51.580;4.578;2023-07-28T08:12:15;100785.41;;;19.03;100.00
69153;BME280;56261;51.580;4.578;2023-07-28T08:14:41;100782.22;;;19.25;100.00
69153;BME280;56261;51.580;4.578;2023-07-28T08:17:08;100783.44;;;19.29;100.00
69153;BME280;56261;51.580;4.578;2023-07-28T08:19:33;100785.25;;;19.17;100.00
69153;BME280;56261;51.580;4.578;2023-07-28T08:21:59;100798.97;;;19.15;100.00
69153;BME280;56261;51.580;4.578;2023-07-28T08:24:24;100802.63;;;19.09;100.00
69153;BME280;56261;51.580;4.578;2023-07-28T08:26:50;100798.28;;;19.20;100.00
69153;BME280;56261;51.580;4.578;2023-07-28T08:29:15;100798.00;;;19.28;100.00
69153;BME280;56261;51.580;4.578;2023-07-28T08:31:40;100796.44;;;19.20;100.00
69153;BME280;56261;51.580;4.578;2023-07-28T08:34:07;100799.28;;;19.25;100.00
69153;BME280;56261;51.580;4.578;2023-07-28T08:36:33;100794.56;;;19.21;100.00
69153;BME280;56261;51.580;4.578;2023-07-28T08:38:58;100805.88;;;19.29;100.00
69153;BME280;56261;51.580;4.578;2023-07-28T08:41:24;100804.38;;;19.15;100.00
69153;BME280;56261;51.580;4.578;2023-07-28T08:43:50;100816.63;;;19.36;100.00
69153;BME280;56261;51.580;4.578;2023-07-28T08:46:16;100810.34;;;19.54;100.00
69153;BME280;56261;51.580;4.578;2023-07-28T08:48:42;100803.22;;;19.41;100.00
69153;BME280;56261;51.580;4.578;2023-07-28T08:51:09;100808.53;;;19.48;100.00
69153;BME280;56261;51.580;4.578;2023-07-28T08:53:37;100808.22;;;19.56;100.00
69153;BME280;56261;51.580;4.578;2023-07-28T08:56:03;100816.78;;;19.72;100.00
69153;BME280;56261;51.580;4.578;2023-07-28T08:58:29;100821.75;;;19.86;100.00
69153;BME280;56261;51.580;4.578;2023-07-28T09:00:55;100817.16;;;19.87;100.00
69153;BME280;56261;51.580;4.578;2023-07-28T09:03:21;100819.03;;;19.86;100.00
69153;BME280;56261;51.580;4.578;2023-07-28T09:05:48;100810.03;;;20.75;100.00
69153;BME280;56261;51.580;4.578;2023-07-28T09:08:14;100813.31;;;21.29;100.00
69153;BME280;56261;51.580;4.578;2023-07-28T09:10:47;100813.59;;;21.16;100.00
69153;BME280;56261;51.580;4.578;2023-07-28T09:13:18;100821.47;;;21.58;100.00
69153;BME280;56261;51.580;4.578;2023-07-28T09:15:44;100817.72;;;21.19;100.00
69153;BME280;56261;51.580;4.578;2023-07-28T09:18:19;100815.25;;;21.74;100.00
69153;BME280;56261;51.580;4.578;2023-07-28T09:20:45;100808.72;;;21.59;100.00
69153;BME280;56261;51.580;4.578;2023-07-28T09:23:13;100818.88;;;21.34;100.00
69153;BME280;56261;51.580;4.578;2023-07-28T09:25:42;100806.56;;;22.06;100.00
69153;BME280;56261;51.580;4.578;2023-07-28T09:28:08;100824.28;;;22.09;100.00
69153;BME280;56261;51.580;4.578;2023-07-28T09:30:49;100813.16;;;22.44;100.00
69153;BME280;56261;51.580;4.578;2023-07-28T09:33:29;100818.00;;;23.20;100.00
69153;BME280;56261;51.580;4.578;2023-07-28T09:35:55;100816.47;;;22.29;100.00
69153;BME280;56261;51.580;4.578;2023-07-28T09:38:22;100831.00;;;21.72;100.00
69153;BME280;56261;51.580;4.578;2023-07-28T09:40:48;100831.13;;;21.37;100.00
69153;BME280;56261;51.580;4.578;2023-07-28T09:43:14;100837.97;;;21.85;100.00
69153;BME280;56261;51.580;4.578;2023-07-28T09:45:39;100825.81;;;21.71;100.00
69153;BME280;56261;51.580;4.578;2023-07-28T09:48:06;100838.13;;;21.21;100.00
69153;BME280;56261;51.580;4.578;2023-07-28T09:50:37;100840.31;;;21.48;100.00
69153;BME280;56261;51.580;4.578;2023-07-28T09:53:03;100839.28;;;21.25;100.00
69153;BME280;56261;51.580;4.578;2023-07-28T09:55:29;100829.81;;;20.99;100.00
69153;BME280;56261;51.580;4.578;2023-07-28T09:57:57;100846.09;;;21.40;100.00
69153;BME280;56261;51.580;4.578;2023-07-28T10:00:25;100848.53;;;21.53;100.00
69153;BME280;56261;51.580;4.578;2023-07-28T10:02:52;100846.06;;;21.51;100.00
69153;BME280;56261;51.580;4.578;2023-07-28T10:05:18;100847.75;;;21.69;100.00
69153;BME280;56261;51.580;4.578;2023-07-28T10:07:44;100847.97;;;22.13;100.00
69153;BME280;56261;51.580;4.578;2023-07-28T10:10:12;100844.63;;;22.23;100.00
69153;BME280;56261;51.580;4.578;2023-07-28T10:12:49;100852.50;;;22.08;100.00
69153;BME280;56261;51.580;4.578;2023-07-28T10:15:19;100848.41;;;21.76;100.00
69153;BME280;56261;51.580;4.578;2023-07-28T10:17:55;100855.50;;;21.49;100.00
69153;BME280;56261;51.580;4.578;2023-07-28T10:20:38;100854.50;;;21.67;100.00
69153;BME280;56261;51.580;4.578;2023-07-28T10:23:11;100854.38;;;21.90;100.00
69153;BME280;56261;51.580;4.578;2023-07-28T10:25:37;100852.81;;;21.94;100.00
69153;BME280;56261;51.580;4.578;2023-07-28T10:28:04;100853.16;;;21.98;100.00
69153;BME280;56261;51.580;4.578;2023-07-28T10:30:35;100853.94;;;22.27;100.00
69153;BME280;56261;51.580;4.578;2023-07-28T10:33:01;100838.00;;;22.92;100.00
69153;BME280;56261;51.580;4.578;2023-07-28T10:35:28;100846.13;;;22.87;100.00
69153;BME280;56261;51.580;4.578;2023-07-28T10:37:57;100845.78;;;22.44;100.00
69153;BME280;56261;51.580;4.578;2023-07-28T10:40:25;100852.44;;;22.92;100.00
69153;BME280;56261;51.580;4.578;2023-07-28T10:42:52;100852.50;;;22.58;100.00
69153;BME280;56261;51.580;4.578;2023-07-28T10:45:19;100852.50;;;22.58;100.00
69153;BME280;56261;51.580;4.578;2023-07-28T10:47:45;100846.06;;;23.04;100.00
69153;BME280;56261;51.580;4.578;2023-07-28T10:50:11;100849.22;;;22.95;100.00
69153;BME280;56261;51.580;4.578;2023-07-28T10:52:44;100850.16;;;22.84;100.00
69153;BME280;56261;51.580;4.578;2023-07-28T10:55:17;100858.00;;;22.64;100.00
69153;BME280;56261;51.580;4.578;2023-07-28T10:57:44;100856.88;;;22.26;100.00
69153;BME280;56261;51.580;4.578;2023-07-28T11:00:12;100848.56;;;22.49;100.00
69153;BME280;56261;51.580;4.578;2023-07-28T11:02:50;100844.03;;;22.94;100.00
69153;BME280;56261;51.580;4.578;2023-07-28T11:05:27;100840.81;;;23.41;100.00
69153;BME280;56261;51.580;4.578;2023-07-28T11:07:57;100837.03;;;23.96;100.00
69153;BME280;56261;51.580;4.578;2023-07-28T11:10:24;100834.06;;;23.98;100.00
69153;BME280;56261;51.580;4.578;2023-07-28T11:12:52;100829.84;;;24.17;100.00
69153;BME280;56261;51.580;4.578;2023-07-28T11:15:18;100830.13;;;24.16;100.00
69153;BME280;56261;51.580;4.578;2023-07-28T11:17:46;100831.19;;;23.82;100.00
69153;BME280;56261;51.580;4.578;2023-07-28T11:20:20;100833.47;;;23.41;100.00
69153;BME280;56261;51.580;4.578;2023-07-28T11:25:20;100852.22;;;23.87;100.00
69153;BME280;56261;51.580;4.578;2023-07-28T11:27:47;100848.13;;;23.85;100.00
69153;BME280;56261;51.580;4.578;2023-07-28T11:30:13;100845.94;;;23.37;100.00
69153;BME280;56261;51.580;4.578;2023-07-28T11:32:42;100847.56;;;23.33;100.00
69153;BME280;56261;51.580;4.578;2023-07-28T11:35:10;100849.88;;;23.47;100.00
69153;BME280;56261;51.580;4.578;2023-07-28T11:37:36;100850.19;;;23.28;100.00
69153;BME280;56261;51.580;4.578;2023-07-28T11:40:04;100860.06;;;23.12;100.00
69153;BME280;56261;51.580;4.578;2023-07-28T11:42:41;100856.97;;;23.04;100.00
69153;BME280;56261;51.580;4.578;2023-07-28T11:45:09;100860.25;;;22.67;100.00
69153;BME280;56261;51.580;4.578;2023-07-28T11:47:35;100864.66;;;22.90;100.00
69153;BME280;56261;51.580;4.578;2023-07-28T11:50:01;100858.06;;;22.86;100.00
69153;BME280;56261;51.580;4.578;2023-07-28T11:52:34;100864.81;;;22.83;100.00
69153;BME280;56261;51.580;4.578;2023-07-28T11:55:05;100867.38;;;22.90;100.00
69153;BME280;56261;51.580;4.578;2023-07-28T11:57:31;100855.50;;;22.40;100.00
69153;BME280;56261;51.580;4.578;2023-07-28T11:59:58;100861.09;;;22.33;100.00
69153;BME280;56261;51.580;4.578;2023-07-28T12:02:28;100864.81;;;22.44;100.00
69153;BME280;56261;51.580;4.578;2023-07-28T12:04:55;100858.53;;;22.44;100.00
69153;BME280;56261;51.580;4.578;2023-07-28T12:07:31;100872.88;;;22.56;100.00
69153;BME280;56261;51.580;4.578;2023-07-28T12:10:03;100866.44;;;22.45;100.00
69153;BME280;56261;51.580;4.578;2023-07-28T12:12:38;100868.41;;;22.16;100.00
69153;BME280;56261;51.580;4.578;2023-07-28T12:15:39;100877.78;;;22.08;100.00
69153;BME280;56261;51.580;4.578;2023-07-28T12:18:07;100884.72;;;21.70;100.00
69153;BME280;56261;51.580;4.578;2023-07-28T12:20:41;100886.28;;;21.83;100.00
69153;BME280;56261;51.580;4.578;2023-07-28T12:23:10;100888.22;;;22.00;100.00
69153;BME280;56261;51.580;4.578;2023-07-28T12:25:36;100882.78;;;22.16;100.00
69153;BME280;56261;51.580;4.578;2023-07-28T12:28:03;100883.53;;;22.12;100.00
69153;BME280;56261;51.580;4.578;2023-07-28T12:30:29;100894.72;;;21.98;100.00
69153;BME280;56261;51.580;4.578;2023-07-28T12:32:54;100890.63;;;22.13;100.00
69153;BME280;56261;51.580;4.578;2023-07-28T12:35:21;100892.03;;;22.15;100.00
69153;BME280;56261;51.580;4.578;2023-07-28T12:37:51;100888.75;;;22.30;100.00
69153;BME280;56261;51.580;4.578;2023-07-28T12:40:17;100888.22;;;22.16;100.00
69153;BME280;56261;51.580;4.578;2023-07-28T12:42:44;100891.03;;;22.05;100.00
69153;BME280;56261;51.580;4.578;2023-07-28T12:45:11;100899.00;;;21.66;100.00